sensor_id;sensor_type;location;lat;lon;timestamp;P1;durP1;ratioP1;P2;durP2;ratioP2
11247;SDS011;5681;53.316;13.950;2022-08-25T00:01:47;18.08;;;8.93;;
11247;SDS011;5681;53.316;13.950;2022-08-25T00:04:15;18.35;;;9.82;;
11247;SDS011;5681;53.316;13.950;2022-08-25T00:06:43;22.98;;;11.32;;
11247;SDS011;5681;53.316;13.950;2022-08-25T00:09:11;20.75;;;10.88;;
11247;SDS011;5681;53.316;13.950;2022-08-25T00:11:39;21.15;;;10.90;;
11247;SDS011;5681;53.316;13.950;2022-08-25T00:14:08;24.02;;;12.88;;
11247;SDS011;5681;53.316;13.950;2022-08-25T00:16:37;29.48;;;14.32;;
11247;SDS011;5681;53.316;13.950;2022-08-25T00:19:06;31.13;;;14.93;;
11247;SDS011;5681;53.316;13.950;2022-08-25T00:21:34;29.38;;;15.20;;
11247;SDS011;5681;53.316;13.950;2022-08-25T00:24:00;32.40;;;16.60;;
11247;SDS011;5681;53.316;13.950;2022-08-25T00:26:28;32.78;;;16.92;;
11247;SDS011;5681;53.316;13.950;2022-08-25T00:28:54;35.30;;;18.23;;
11247;SDS011;5681;53.316;13.950;2022-08-25T00:31:23;42.38;;;19.55;;
11247;SDS011;5681;53.316;13.950;2022-08-25T00:33:50;37.03;;;18.60;;
11247;SDS011;5681;53.316;13.950;2022-08-25T00:36:18;34.13;;;18.95;;
11247;SDS011;5681;53.316;13.950;2022-08-25T00:38:45;36.00;;;18.45;;
11247;SDS011;5681;53.316;13.950;2022-08-25T00:41:15;40.28;;;19.63;;
11247;SDS011;5681;53.316;13.950;2022-08-25T00:43:45;37.95;;;19.50;;
11247;SDS011;5681;53.316;13.950;2022-08-25T00:46:16;41.78;;;20.35;;
11247;SDS011;5681;53.316;13.950;2022-08-25T00:48:46;38.55;;;19.25;;
11247;SDS011;5681;53.316;13.950;2022-08-25T00:51:16;38.22;;;20.40;;
11247;SDS011;5681;53.316;13.950;2022-08-25T00:53:44;40.63;;;20.52;;
11247;SDS011;5681;53.316;13.950;2022-08-25T00:56:11;49.70;;;23.08;;
11247;SDS011;5681;53.316;13.950;2022-08-25T00:58:38;37.83;;;21.67;;
11247;SDS011;5681;53.316;13.950;2022-08-25T01:01:05;45.70;;;21.85;;
11247;SDS011;5681;53.316;13.950;2022-08-25T01:03:32;45.00;;;23.67;;
11247;SDS011;5681;53.316;13.950;2022-08-25T01:06:01;47.08;;;22.63;;
11247;SDS011;5681;53.316;13.950;2022-08-25T01:08:28;43.70;;;23.45;;
11247;SDS011;5681;53.316;13.950;2022-08-25T01:10:57;46.22;;;23.35;;
11247;SDS011;5681;53.316;13.950;2022-08-25T01:13:27;47.20;;;25.77;;
11247;SDS011;5681;53.316;13.950;2022-08-25T01:15:57;54.13;;;24.33;;
11247;SDS011;5681;53.316;13.950;2022-08-25T01:18:24;45.45;;;24.15;;
11247;SDS011;5681;53.316;13.950;2022-08-25T01:20:53;46.05;;;24.63;;
11247;SDS011;5681;53.316;13.950;2022-08-25T01:23:21;47.13;;;23.77;;
11247;SDS011;5681;53.316;13.950;2022-08-25T01:25:50;43.10;;;23.80;;
11247;SDS011;5681;53.316;13.950;2022-08-25T01:28:18;41.05;;;23.98;;
11247;SDS011;5681;53.316;13.950;2022-08-25T01:30:45;42.58;;;23.83;;
11247;SDS011;5681;53.316;13.950;2022-08-25T01:33:12;42.97;;;25.65;;
11247;SDS011;5681;53.316;13.950;2022-08-25T01:35:38;38.22;;;23.30;;
11247;SDS011;5681;53.316;13.950;2022-08-25T01:38:07;50.47;;;24.08;;
11247;SDS011;5681;53.316;13.950;2022-08-25T01:40:33;90.13;;;25.83;;
11247;SDS011;5681;53.316;13.950;2022-08-25T01:43:02;40.28;;;23.58;;
11247;SDS011;5681;53.316;13.950;2022-08-25T01:45:32;49.60;;;24.42;;
11247;SDS011;5681;53.316;13.950;2022-08-25T01:47:58;51.65;;;23.50;;
11247;SDS011;5681;53.316;13.950;2022-08-25T01:50:25;35.95;;;23.10;;
11247;SDS011;5681;53.316;13.950;2022-08-25T01:52:53;45.15;;;24.13;;
11247;SDS011;5681;53.316;13.950;2022-08-25T01:55:22;40.15;;;22.45;;
11247;SDS011;5681;53.316;13.950;2022-08-25T01:57:49;36.47;;;22.95;;
11247;SDS011;5681;53.316;13.950;2022-08-25T02:00:16;37.65;;;23.08;;
11247;SDS011;5681;53.316;13.950;2022-08-25T02:02:43;49.85;;;23.23;;
11247;SDS011;5681;53.316;13.950;2022-08-25T02:05:10;34.35;;;22.05;;
11247;SDS011;5681;53.316;13.950;2022-08-25T02:07:38;38.78;;;22.98;;
11247;SDS011;5681;53.316;13.950;2022-08-25T02:10:06;45.78;;;24.05;;
11247;SDS011;5681;53.316;13.950;2022-08-25T02:12:34;50.92;;;24.90;;
11247;SDS011;5681;53.316;13.950;2022-08-25T02:15:02;41.65;;;23.27;;
11247;SDS011;5681;53.316;13.950;2022-08-25T02:17:29;34.97;;;22.83;;
11247;SDS011;5681;53.316;13.950;2022-08-25T02:19:56;36.15;;;22.90;;
11247;SDS011;5681;53.316;13.950;2022-08-25T02:22:23;36.65;;;22.90;;
11247;SDS011;5681;53.316;13.950;2022-08-25T02:24:49;40.50;;;23.42;;
11247;SDS011;5681;53.316;13.950;2022-08-25T02:27:16;44.78;;;23.45;;
11247;SDS011;5681;53.316;13.950;2022-08-25T02:29:44;44.97;;;24.27;;
11247;SDS011;5681;53.316;13.950;2022-08-25T02:32:10;43.63;;;21.52;;
11247;SDS011;5681;53.316;13.950;2022-08-25T02:34:36;36.38;;;24.05;;
11247;SDS011;5681;53.316;13.950;2022-08-25T02:37:05;51.25;;;23.17;;
11247;SDS011;5681;53.316;13.950;2022-08-25T02:39:32;53.20;;;22.42;;
11247;SDS011;5681;53.316;13.950;2022-08-25T02:41:58;41.65;;;23.38;;
11247;SDS011;5681;53.316;13.950;2022-08-25T02:44:24;38.15;;;22.73;;
11247;SDS011;5681;53.316;13.950;2022-08-25T02:46:52;51.65;;;22.15;;
11247;SDS011;5681;53.316;13.950;2022-08-25T02:49:18;44.63;;;21.90;;
11247;SDS011;5681;53.316;13.950;2022-08-25T02:51:45;40.83;;;21.20;;
11247;SDS011;5681;53.316;13.950;2022-08-25T02:54:11;134.88;;;23.10;;
11247;SDS011;5681;53.316;13.950;2022-08-25T02:56:37;32.33;;;21.95;;
11247;SDS011;5681;53.316;13.950;2022-08-25T02:59:05;40.15;;;23.83;;
11247;SDS011;5681;53.316;13.950;2022-08-25T03:01:31;41.28;;;23.30;;
11247;SDS011;5681;53.316;13.950;2022-08-25T03:03:59;41.95;;;21.90;;
11247;SDS011;5681;53.316;13.950;2022-08-25T03:06:25;44.17;;;24.38;;
11247;SDS011;5681;53.316;13.950;2022-08-25T03:08:52;32.53;;;23.48;;
11247;SDS011;5681;53.316;13.950;2022-08-25T03:11:19;44.20;;;23.33;;
11247;SDS011;5681;53.316;13.950;2022-08-25T03:13:46;36.63;;;23.60;;
11247;SDS011;5681;53.316;13.950;2022-08-25T03:16:14;44.15;;;24.75;;
11247;SDS011;5681;53.316;13.950;2022-08-25T03:18:41;44.60;;;24.33;;
11247;SDS011;5681;53.316;13.950;2022-08-25T03:21:09;36.13;;;24.05;;
11247;SDS011;5681;53.316;13.950;2022-08-25T03:23:36;36.58;;;23.58;;
11247;SDS011;5681;53.316;13.950;2022-08-25T03:26:03;44.80;;;24.50;;
11247;SDS011;5681;53.316;13.950;2022-08-25T03:28:47;43.00;;;21.50;;
11247;SDS011;5681;53.316;13.950;2022-08-25T03:31:13;38.15;;;21.83;;
11247;SDS011;5681;53.316;13.950;2022-08-25T03:33:39;66.15;;;23.23;;
11247;SDS011;5681;53.316;13.950;2022-08-25T03:36:07;37.90;;;21.90;;
11247;SDS011;5681;53.316;13.950;2022-08-25T03:38:36;50.28;;;21.98;;
11247;SDS011;5681;53.316;13.950;2022-08-25T03:41:09;35.08;;;21.33;;
11247;SDS011;5681;53.316;13.950;2022-08-25T03:43:38;38.13;;;21.25;;
11247;SDS011;5681;53.316;13.950;2022-08-25T03:46:04;37.65;;;20.17;;
11247;SDS011;5681;53.316;13.950;2022-08-25T03:48:31;36.42;;;19.75;;
11247;SDS011;5681;53.316;13.950;2022-08-25T03:50:57;35.35;;;18.80;;
11247;SDS011;5681;53.316;13.950;2022-08-25T03:53:25;24.17;;;19.38;;
11247;SDS011;5681;53.316;13.950;2022-08-25T03:55:51;83.68;;;18.98;;
11247;SDS011;5681;53.316;13.950;2022-08-25T03:58:17;79.85;;;19.92;;
11247;SDS011;5681;53.316;13.950;2022-08-25T04:00:44;31.48;;;19.63;;
11247;SDS011;5681;53.316;13.950;2022-08-25T04:03:10;166.73;;;22.33;;
11247;SDS011;5681;53.316;13.950;2022-08-25T04:05:36;30.02;;;19.50;;
11247;SDS011;5681;53.316;13.950;2022-08-25T04:08:03;49.90;;;20.15;;
11247;SDS011;5681;53.316;13.950;2022-08-25T04:10:33;40.67;;;20.60;;
11247;SDS011;5681;53.316;13.950;2022-08-25T04:12:59;31.85;;;21.42;;
11247;SDS011;5681;53.316;13.950;2022-08-25T04:15:26;52.97;;;21.10;;
11247;SDS011;5681;53.316;13.950;2022-08-25T04:17:53;53.15;;;21.17;;
11247;SDS011;5681;53.316;13.950;2022-08-25T04:20:19;49.00;;;20.90;;
11247;SDS011;5681;53.316;13.950;2022-08-25T04:22:46;55.45;;;23.08;;
11247;SDS011;5681;53.316;13.950;2022-08-25T04:25:12;55.92;;;22.63;;
11247;SDS011;5681;53.316;13.950;2022-08-25T04:27:40;63.20;;;21.20;;
11247;SDS011;5681;53.316;13.950;2022-08-25T04:30:07;28.77;;;21.48;;
11247;SDS011;5681;53.316;13.950;2022-08-25T04:32:34;53.65;;;22.25;;
11247;SDS011;5681;53.316;13.950;2022-08-25T04:35:01;47.10;;;22.55;;
11247;SDS011;5681;53.316;13.950;2022-08-25T04:37:29;104.15;;;25.35;;
11247;SDS011;5681;53.316;13.950;2022-08-25T04:39:55;32.97;;;23.98;;
11247;SDS011;5681;53.316;13.950;2022-08-25T04:42:21;33.88;;;23.35;;
11247;SDS011;5681;53.316;13.950;2022-08-25T04:44:51;31.35;;;22.05;;
11247;SDS011;5681;53.316;13.950;2022-08-25T04:47:18;42.75;;;21.75;;
11247;SDS011;5681;53.316;13.950;2022-08-25T04:49:44;26.48;;;22.33;;
11247;SDS011;5681;53.316;13.950;2022-08-25T04:52:11;53.30;;;23.40;;
11247;SDS011;5681;53.316;13.950;2022-08-25T04:54:37;29.98;;;19.83;;
11247;SDS011;5681;53.316;13.950;2022-08-25T04:57:04;33.28;;;18.85;;
11247;SDS011;5681;53.316;13.950;2022-08-25T04:59:30;27.83;;;21.52;;
11247;SDS011;5681;53.316;13.950;2022-08-25T05:01:59;26.80;;;20.05;;
11247;SDS011;5681;53.316;13.950;2022-08-25T05:04:27;34.55;;;19.05;;
11247;SDS011;5681;53.316;13.950;2022-08-25T05:06:53;33.50;;;16.67;;
11247;SDS011;5681;53.316;13.950;2022-08-25T05:09:19;27.42;;;17.17;;
11247;SDS011;5681;53.316;13.950;2022-08-25T05:11:46;23.30;;;17.33;;
11247;SDS011;5681;53.316;13.950;2022-08-25T05:14:12;33.85;;;17.05;;
11247;SDS011;5681;53.316;13.950;2022-08-25T05:16:42;18.08;;;16.17;;
11247;SDS011;5681;53.316;13.950;2022-08-25T05:19:10;22.60;;;16.85;;
11247;SDS011;5681;53.316;13.950;2022-08-25T05:21:36;16.40;;;14.75;;
11247;SDS011;5681;53.316;13.950;2022-08-25T05:24:02;30.65;;;14.90;;
11247;SDS011;5681;53.316;13.950;2022-08-25T05:26:30;14.48;;;12.93;;
11247;SDS011;5681;53.316;13.950;2022-08-25T05:28:58;36.17;;;16.20;;
11247;SDS011;5681;53.316;13.950;2022-08-25T05:31:25;27.15;;;16.05;;
11247;SDS011;5681;53.316;13.950;2022-08-25T05:33:53;16.45;;;14.63;;
11247;SDS011;5681;53.316;13.950;2022-08-25T05:36:21;21.25;;;13.57;;
11247;SDS011;5681;53.316;13.950;2022-08-25T05:38:48;31.20;;;14.95;;
11247;SDS011;5681;53.316;13.950;2022-08-25T05:41:16;26.02;;;15.52;;
11247;SDS011;5681;53.316;13.950;2022-08-25T05:43:44;17.95;;;14.95;;
11247;SDS011;5681;53.316;13.950;2022-08-25T05:46:12;45.90;;;17.08;;
11247;SDS011;5681;53.316;13.950;2022-08-25T05:48:38;26.58;;;16.08;;
11247;SDS011;5681;53.316;13.950;2022-08-25T05:51:05;37.20;;;16.48;;
11247;SDS011;5681;53.316;13.950;2022-08-25T05:53:36;27.10;;;15.63;;
11247;SDS011;5681;53.316;13.950;2022-08-25T05:56:03;23.15;;;14.98;;
11247;SDS011;5681;53.316;13.950;2022-08-25T05:58:30;25.55;;;15.68;;
11247;SDS011;5681;53.316;13.950;2022-08-25T06:00:57;42.28;;;14.73;;
11247;SDS011;5681;53.316;13.950;2022-08-25T06:03:44;49.45;;;16.40;;
11247;SDS011;5681;53.316;13.950;2022-08-25T06:06:09;26.42;;;15.55;;
11247;SDS011;5681;53.316;13.950;2022-08-25T06:08:37;40.35;;;14.73;;
11247;SDS011;5681;53.316;13.950;2022-08-25T06:11:04;29.38;;;16.88;;
11247;SDS011;5681;53.316;13.950;2022-08-25T06:13:31;36.67;;;16.02;;
11247;SDS011;5681;53.316;13.950;2022-08-25T06:15:57;28.58;;;15.85;;
11247;SDS011;5681;53.316;13.950;2022-08-25T06:18:24;21.70;;;14.93;;
11247;SDS011;5681;53.316;13.950;2022-08-25T06:20:51;21.00;;;15.10;;
11247;SDS011;5681;53.316;13.950;2022-08-25T06:23:17;39.13;;;17.60;;
11247;SDS011;5681;53.316;13.950;2022-08-25T06:25:48;24.60;;;16.48;;
11247;SDS011;5681;53.316;13.950;2022-08-25T06:28:15;23.17;;;16.40;;
11247;SDS011;5681;53.316;13.950;2022-08-25T06:30:42;22.65;;;18.40;;
11247;SDS011;5681;53.316;13.950;2022-08-25T06:33:08;21.55;;;17.33;;
11247;SDS011;5681;53.316;13.950;2022-08-25T06:35:35;23.70;;;18.33;;
11247;SDS011;5681;53.316;13.950;2022-08-25T06:38:02;23.90;;;20.48;;
11247;SDS011;5681;53.316;13.950;2022-08-25T06:40:28;41.25;;;24.77;;
11247;SDS011;5681;53.316;13.950;2022-08-25T06:42:56;32.00;;;23.25;;
11247;SDS011;5681;53.316;13.950;2022-08-25T06:45:22;41.75;;;26.40;;
11247;SDS011;5681;53.316;13.950;2022-08-25T06:47:48;44.67;;;28.55;;
11247;SDS011;5681;53.316;13.950;2022-08-25T06:50:16;45.33;;;27.27;;
11247;SDS011;5681;53.316;13.950;2022-08-25T06:52:43;56.17;;;33.80;;
11247;SDS011;5681;53.316;13.950;2022-08-25T06:55:09;65.28;;;40.63;;
11247;SDS011;5681;53.316;13.950;2022-08-25T06:57:36;66.43;;;42.53;;
11247;SDS011;5681;53.316;13.950;2022-08-25T07:00:04;65.63;;;42.08;;
11247;SDS011;5681;53.316;13.950;2022-08-25T07:02:32;83.88;;;49.05;;
11247;SDS011;5681;53.316;13.950;2022-08-25T07:04:58;83.03;;;51.30;;
11247;SDS011;5681;53.316;13.950;2022-08-25T07:07:25;106.78;;;55.75;;
11247;SDS011;5681;53.316;13.950;2022-08-25T07:09:51;107.43;;;57.78;;
11247;SDS011;5681;53.316;13.950;2022-08-25T07:12:18;127.45;;;66.97;;
11247;SDS011;5681;53.316;13.950;2022-08-25T07:14:44;158.85;;;77.22;;
11247;SDS011;5681;53.316;13.950;2022-08-25T07:17:12;166.07;;;81.40;;
11247;SDS011;5681;53.316;13.950;2022-08-25T07:19:38;151.45;;;77.43;;
11247;SDS011;5681;53.316;13.950;2022-08-25T07:22:04;135.40;;;71.60;;
11247;SDS011;5681;53.316;13.950;2022-08-25T07:24:31;115.70;;;65.32;;
11247;SDS011;5681;53.316;13.950;2022-08-25T07:26:57;104.25;;;59.42;;
11247;SDS011;5681;53.316;13.950;2022-08-25T07:29:25;101.22;;;63.63;;
11247;SDS011;5681;53.316;13.950;2022-08-25T07:31:52;98.90;;;59.47;;
11247;SDS011;5681;53.316;13.950;2022-08-25T07:34:20;85.43;;;52.42;;
11247;SDS011;5681;53.316;13.950;2022-08-25T07:37:04;54.35;;;36.28;;
11247;SDS011;5681;53.316;13.950;2022-08-25T07:39:31;48.30;;;34.13;;
11247;SDS011;5681;53.316;13.950;2022-08-25T07:41:58;37.22;;;27.65;;
11247;SDS011;5681;53.316;13.950;2022-08-25T07:44:24;36.28;;;26.80;;
11247;SDS011;5681;53.316;13.950;2022-08-25T07:46:52;36.70;;;27.00;;
11247;SDS011;5681;53.316;13.950;2022-08-25T07:49:21;37.17;;;26.13;;
11247;SDS011;5681;53.316;13.950;2022-08-25T07:51:48;33.45;;;23.95;;
11247;SDS011;5681;53.316;13.950;2022-08-25T07:54:15;27.23;;;20.88;;
11247;SDS011;5681;53.316;13.950;2022-08-25T07:56:41;28.00;;;19.00;;
11247;SDS011;5681;53.316;13.950;2022-08-25T07:59:08;26.00;;;17.38;;
11247;SDS011;5681;53.316;13.950;2022-08-25T08:01:34;21.27;;;15.23;;
11247;SDS011;5681;53.316;13.950;2022-08-25T08:04:01;18.83;;;15.13;;
11247;SDS011;5681;53.316;13.950;2022-08-25T08:06:29;25.63;;;18.73;;
11247;SDS011;5681;53.316;13.950;2022-08-25T08:08:56;18.80;;;14.80;;
11247;SDS011;5681;53.316;13.950;2022-08-25T08:11:24;18.73;;;12.75;;
11247;SDS011;5681;53.316;13.950;2022-08-25T08:13:52;20.30;;;12.30;;
11247;SDS011;5681;53.316;13.950;2022-08-25T08:16:20;23.20;;;17.10;;
11247;SDS011;5681;53.316;13.950;2022-08-25T08:18:48;25.30;;;16.80;;
11247;SDS011;5681;53.316;13.950;2022-08-25T08:21:15;25.05;;;18.35;;
11247;SDS011;5681;53.316;13.950;2022-08-25T08:23:44;20.98;;;16.90;;
11247;SDS011;5681;53.316;13.950;2022-08-25T08:26:11;22.17;;;16.45;;
11247;SDS011;5681;53.316;13.950;2022-08-25T08:28:37;20.15;;;14.63;;
11247;SDS011;5681;53.316;13.950;2022-08-25T08:31:03;17.70;;;12.38;;
11247;SDS011;5681;53.316;13.950;2022-08-25T08:33:30;16.83;;;12.75;;
11247;SDS011;5681;53.316;13.950;2022-08-25T08:35:57;17.42;;;12.43;;
11247;SDS011;5681;53.316;13.950;2022-08-25T08:38:25;17.15;;;11.13;;
11247;SDS011;5681;53.316;13.950;2022-08-25T08:40:57;15.85;;;11.75;;
11247;SDS011;5681;53.316;13.950;2022-08-25T08:43:46;18.42;;;11.00;;
11247;SDS011;5681;53.316;13.950;2022-08-25T08:46:13;14.05;;;10.10;;
11247;SDS011;5681;53.316;13.950;2022-08-25T08:48:42;13.38;;;9.32;;
11247;SDS011;5681;53.316;13.950;2022-08-25T08:51:15;13.27;;;8.93;;
11247;SDS011;5681;53.316;13.950;2022-08-25T08:53:47;17.17;;;9.32;;
11247;SDS011;5681;53.316;13.950;2022-08-25T08:56:19;13.90;;;9.35;;
11247;SDS011;5681;53.316;13.950;2022-08-25T08:58:51;12.18;;;9.20;;
11247;SDS011;5681;53.316;13.950;2022-08-25T09:01:22;13.65;;;9.80;;
11247;SDS011;5681;53.316;13.950;2022-08-25T09:03:51;14.45;;;7.93;;
11247;SDS011;5681;53.316;13.950;2022-08-25T09:06:23;13.32;;;8.40;;
11247;SDS011;5681;53.316;13.950;2022-08-25T09:08:50;17.23;;;7.78;;
11247;SDS011;5681;53.316;13.950;2022-08-25T09:11:22;15.00;;;7.80;;
11247;SDS011;5681;53.316;13.950;2022-08-25T09:13:58;14.10;;;7.68;;
11247;SDS011;5681;53.316;13.950;2022-08-25T09:16:31;11.80;;;8.27;;
11247;SDS011;5681;53.316;13.950;2022-08-25T09:19:23;13.88;;;8.85;;
11247;SDS011;5681;53.316;13.950;2022-08-25T09:21:56;15.13;;;8.38;;
11247;SDS011;5681;53.316;13.950;2022-08-25T09:24:40;11.65;;;8.50;;
11247;SDS011;5681;53.316;13.950;2022-08-25T09:27:20;14.35;;;8.25;;
11247;SDS011;5681;53.316;13.950;2022-08-25T09:29:53;12.73;;;8.30;;
11247;SDS011;5681;53.316;13.950;2022-08-25T09:32:26;14.60;;;7.38;;
11247;SDS011;5681;53.316;13.950;2022-08-25T09:34:53;12.88;;;6.95;;
11247;SDS011;5681;53.316;13.950;2022-08-25T09:37:21;12.40;;;7.43;;
11247;SDS011;5681;53.316;13.950;2022-08-25T09:39:48;12.20;;;7.60;;
11247;SDS011;5681;53.316;13.950;2022-08-25T09:42:14;9.98;;;7.00;;
11247;SDS011;5681;53.316;13.950;2022-08-25T09:44:45;15.48;;;7.00;;
11247;SDS011;5681;53.316;13.950;2022-08-25T09:47:14;10.73;;;7.10;;
11247;SDS011;5681;53.316;13.950;2022-08-25T09:49:46;11.20;;;7.45;;
11247;SDS011;5681;53.316;13.950;2022-08-25T09:52:25;16.83;;;8.10;;
11247;SDS011;5681;53.316;13.950;2022-08-25T09:55:01;15.38;;;8.85;;
11247;SDS011;5681;53.316;13.950;2022-08-25T09:57:50;19.05;;;8.65;;
11247;SDS011;5681;53.316;13.950;2022-08-25T10:00:20;17.20;;;9.70;;
11247;SDS011;5681;53.316;13.950;2022-08-25T10:03:00;12.65;;;9.48;;
11247;SDS011;5681;53.316;13.950;2022-08-25T10:05:29;14.00;;;9.40;;
11247;SDS011;5681;53.316;13.950;2022-08-25T10:07:59;17.88;;;10.60;;
11247;SDS011;5681;53.316;13.950;2022-08-25T10:10:28;11.70;;;7.93;;
11247;SDS011;5681;53.316;13.950;2022-08-25T10:12:57;14.95;;;8.20;;
11247;SDS011;5681;53.316;13.950;2022-08-25T10:15:26;14.20;;;8.07;;
11247;SDS011;5681;53.316;13.950;2022-08-25T10:17:54;9.95;;;6.28;;
11247;SDS011;5681;53.316;13.950;2022-08-25T10:20:21;16.10;;;5.63;;
11247;SDS011;5681;53.316;13.950;2022-08-25T10:22:49;11.40;;;4.65;;
11247;SDS011;5681;53.316;13.950;2022-08-25T10:25:19;15.20;;;4.88;;
11247;SDS011;5681;53.316;13.950;2022-08-25T10:27:50;11.60;;;4.68;;
11247;SDS011;5681;53.316;13.950;2022-08-25T10:30:27;11.63;;;5.05;;
11247;SDS011;5681;53.316;13.950;2022-08-25T10:33:01;13.32;;;4.30;;
11247;SDS011;5681;53.316;13.950;2022-08-25T10:35:36;14.20;;;4.25;;
11247;SDS011;5681;53.316;13.950;2022-08-25T10:38:14;9.35;;;4.53;;
11247;SDS011;5681;53.316;13.950;2022-08-25T10:40:53;9.48;;;3.70;;
11247;SDS011;5681;53.316;13.950;2022-08-25T10:43:28;14.80;;;4.40;;
11247;SDS011;5681;53.316;13.950;2022-08-25T10:46:01;12.88;;;4.10;;
11247;SDS011;5681;53.316;13.950;2022-08-25T10:48:38;14.15;;;4.95;;
11247;SDS011;5681;53.316;13.950;2022-08-25T10:54:11;13.23;;;4.50;;
11247;SDS011;5681;53.316;13.950;2022-08-25T10:56:49;12.30;;;3.80;;
11247;SDS011;5681;53.316;13.950;2022-08-25T10:59:28;10.52;;;4.05;;
11247;SDS011;5681;53.316;13.950;2022-08-25T11:02:24;15.27;;;4.97;;
11247;SDS011;5681;53.316;13.950;2022-08-25T11:04:55;9.00;;;4.00;;
11247;SDS011;5681;53.316;13.950;2022-08-25T11:07:24;11.55;;;4.03;;
11247;SDS011;5681;53.316;13.950;2022-08-25T11:09:53;16.60;;;4.40;;
11247;SDS011;5681;53.316;13.950;2022-08-25T11:12:24;9.45;;;4.35;;
11247;SDS011;5681;53.316;13.950;2022-08-25T11:14:54;8.85;;;4.13;;
11247;SDS011;5681;53.316;13.950;2022-08-25T11:17:25;8.63;;;3.78;;
11247;SDS011;5681;53.316;13.950;2022-08-25T11:19:54;18.80;;;5.10;;
11247;SDS011;5681;53.316;13.950;2022-08-25T11:22:24;15.05;;;4.40;;
11247;SDS011;5681;53.316;13.950;2022-08-25T11:25:00;11.52;;;4.15;;
11247;SDS011;5681;53.316;13.950;2022-08-25T11:27:31;11.95;;;4.80;;
11247;SDS011;5681;53.316;13.950;2022-08-25T11:30:03;9.88;;;3.80;;
11247;SDS011;5681;53.316;13.950;2022-08-25T11:32:34;9.93;;;4.28;;
11247;SDS011;5681;53.316;13.950;2022-08-25T11:35:02;11.23;;;4.60;;
11247;SDS011;5681;53.316;13.950;2022-08-25T11:37:30;10.00;;;4.25;;
11247;SDS011;5681;53.316;13.950;2022-08-25T11:42:49;10.25;;;4.57;;
11247;SDS011;5681;53.316;13.950;2022-08-25T11:45:26;12.07;;;4.57;;
11247;SDS011;5681;53.316;13.950;2022-08-25T11:48:14;15.10;;;4.30;;
11247;SDS011;5681;53.316;13.950;2022-08-25T11:50:55;14.43;;;4.32;;
11247;SDS011;5681;53.316;13.950;2022-08-25T11:53:24;10.45;;;4.18;;
11247;SDS011;5681;53.316;13.950;2022-08-25T11:55:53;11.32;;;4.22;;
11247;SDS011;5681;53.316;13.950;2022-08-25T11:58:27;7.90;;;4.30;;
11247;SDS011;5681;53.316;13.950;2022-08-25T12:01:07;9.60;;;4.20;;
11247;SDS011;5681;53.316;13.950;2022-08-25T12:03:46;15.98;;;4.75;;
11247;SDS011;5681;53.316;13.950;2022-08-25T12:06:17;10.13;;;4.10;;
11247;SDS011;5681;53.316;13.950;2022-08-25T12:08:47;7.72;;;3.63;;
11247;SDS011;5681;53.316;13.950;2022-08-25T12:14:34;10.70;;;4.03;;
11247;SDS011;5681;53.316;13.950;2022-08-25T12:17:05;7.53;;;3.90;;
11247;SDS011;5681;53.316;13.950;2022-08-25T12:19:49;12.98;;;4.03;;
11247;SDS011;5681;53.316;13.950;2022-08-25T12:25:26;11.52;;;3.90;;
11247;SDS011;5681;53.316;13.950;2022-08-25T12:27:59;11.30;;;4.25;;
11247;SDS011;5681;53.316;13.950;2022-08-25T12:30:31;10.52;;;4.13;;
11247;SDS011;5681;53.316;13.950;2022-08-25T12:33:06;9.32;;;3.75;;
11247;SDS011;5681;53.316;13.950;2022-08-25T12:35:50;11.60;;;4.05;;
11247;SDS011;5681;53.316;13.950;2022-08-25T12:38:26;16.13;;;4.00;;
11247;SDS011;5681;53.316;13.950;2022-08-25T12:40:57;15.30;;;4.05;;
11247;SDS011;5681;53.316;13.950;2022-08-25T12:43:27;12.85;;;4.30;;
11247;SDS011;5681;53.316;13.950;2022-08-25T12:46:30;9.57;;;3.85;;
11247;SDS011;5681;53.316;13.950;2022-08-25T12:49:03;11.57;;;4.45;;
11247;SDS011;5681;53.316;13.950;2022-08-25T12:51:47;11.52;;;4.00;;
11247;SDS011;5681;53.316;13.950;2022-08-25T12:54:19;6.35;;;3.42;;
11247;SDS011;5681;53.316;13.950;2022-08-25T12:56:51;15.98;;;3.67;;
11247;SDS011;5681;53.316;13.950;2022-08-25T12:59:20;15.88;;;4.20;;
11247;SDS011;5681;53.316;13.950;2022-08-25T13:01:57;13.63;;;4.63;;
11247;SDS011;5681;53.316;13.950;2022-08-25T13:04:38;12.48;;;4.57;;
11247;SDS011;5681;53.316;13.950;2022-08-25T13:07:17;8.07;;;3.72;;
11247;SDS011;5681;53.316;13.950;2022-08-25T13:10:02;9.30;;;3.88;;
11247;SDS011;5681;53.316;13.950;2022-08-25T13:12:36;16.90;;;4.05;;
11247;SDS011;5681;53.316;13.950;2022-08-25T13:15:06;8.75;;;3.65;;
11247;SDS011;5681;53.316;13.950;2022-08-25T13:17:37;20.75;;;4.68;;
11247;SDS011;5681;53.316;13.950;2022-08-25T13:20:09;13.77;;;3.90;;
11247;SDS011;5681;53.316;13.950;2022-08-25T13:22:38;14.15;;;4.00;;
11247;SDS011;5681;53.316;13.950;2022-08-25T13:25:05;14.07;;;4.22;;
11247;SDS011;5681;53.316;13.950;2022-08-25T13:27:32;10.05;;;3.72;;
11247;SDS011;5681;53.316;13.950;2022-08-25T13:30:00;15.70;;;4.18;;
11247;SDS011;5681;53.316;13.950;2022-08-25T13:32:28;15.35;;;4.00;;
11247;SDS011;5681;53.316;13.950;2022-08-25T13:35:06;14.10;;;4.00;;
11247;SDS011;5681;53.316;13.950;2022-08-25T13:37:36;20.75;;;4.57;;
11247;SDS011;5681;53.316;13.950;2022-08-25T13:40:10;13.45;;;4.10;;
11247;SDS011;5681;53.316;13.950;2022-08-25T13:42:41;20.95;;;4.05;;
11247;SDS011;5681;53.316;13.950;2022-08-25T13:45:11;21.15;;;4.18;;
11247;SDS011;5681;53.316;13.950;2022-08-25T13:47:45;13.95;;;3.72;;
11247;SDS011;5681;53.316;13.950;2022-08-25T13:50:17;19.20;;;4.75;;
11247;SDS011;5681;53.316;13.950;2022-08-25T13:52:46;8.25;;;3.70;;
11247;SDS011;5681;53.316;13.950;2022-08-25T13:55:19;11.65;;;4.05;;
11247;SDS011;5681;53.316;13.950;2022-08-25T13:57:47;10.68;;;4.07;;
11247;SDS011;5681;53.316;13.950;2022-08-25T14:00:13;10.75;;;3.50;;
11247;SDS011;5681;53.316;13.950;2022-08-25T14:02:52;13.35;;;4.60;;
11247;SDS011;5681;53.316;13.950;2022-08-25T14:05:28;9.77;;;3.63;;
11247;SDS011;5681;53.316;13.950;2022-08-25T14:07:57;12.48;;;3.80;;
11247;SDS011;5681;53.316;13.950;2022-08-25T14:10:34;9.02;;;3.40;;
11247;SDS011;5681;53.316;13.950;2022-08-25T14:13:06;13.27;;;3.75;;
11247;SDS011;5681;53.316;13.950;2022-08-25T14:15:38;10.35;;;3.88;;
11247;SDS011;5681;53.316;13.950;2022-08-25T14:18:06;11.25;;;3.38;;
11247;SDS011;5681;53.316;13.950;2022-08-25T14:20:35;11.43;;;3.90;;
11247;SDS011;5681;53.316;13.950;2022-08-25T14:23:02;15.48;;;3.90;;
11247;SDS011;5681;53.316;13.950;2022-08-25T14:25:32;15.95;;;3.70;;
11247;SDS011;5681;53.316;13.950;2022-08-25T14:28:00;13.80;;;3.88;;
11247;SDS011;5681;53.316;13.950;2022-08-25T14:30:29;16.95;;;4.82;;
11247;SDS011;5681;53.316;13.950;2022-08-25T14:32:56;13.20;;;3.95;;
11247;SDS011;5681;53.316;13.950;2022-08-25T14:35:23;12.95;;;3.90;;
11247;SDS011;5681;53.316;13.950;2022-08-25T14:37:53;20.95;;;4.35;;
11247;SDS011;5681;53.316;13.950;2022-08-25T14:40:23;13.23;;;4.00;;
11247;SDS011;5681;53.316;13.950;2022-08-25T14:42:50;8.25;;;3.67;;
11247;SDS011;5681;53.316;13.950;2022-08-25T14:45:17;13.10;;;3.88;;
11247;SDS011;5681;53.316;13.950;2022-08-25T14:47:44;13.30;;;3.90;;
11247;SDS011;5681;53.316;13.950;2022-08-25T14:50:11;9.00;;;3.70;;
11247;SDS011;5681;53.316;13.950;2022-08-25T14:52:39;11.52;;;3.75;;